createdAt,value
2019-04-19T00:00:03.423Z,53.30
2019-04-19T00:01:04.845Z,53.20
2019-04-19T00:02:07.319Z,53.67
2019-04-19T00:03:00.905Z,53.30
2019-04-19T00:04:05.023Z,53.23
2019-04-19T00:05:03.531Z,53.58
2019-04-19T00:06:05.948Z,53.96
2019-04-19T00:07:09.810Z,54.53
2019-04-19T00:08:17.002Z,54.63
2019-04-19T00:09:16.689Z,54.72
2019-04-19T00:10:12.541Z,54.72
2019-04-19T00:11:11.687Z,54.91
2019-04-19T00:12:14.619Z,54.72
2019-04-19T00:13:04.277Z,54.53
2019-04-19T00:14:01.924Z,55.10
2019-04-19T00:15:01.379Z,55.20
2019-04-19T00:16:00.600Z,55.68
2019-04-19T00:17:01.639Z,55.87
2019-04-19T00:18:06.076Z,55.77
2019-04-19T00:19:26.734Z,55.17
2019-04-19T00:20:25.620Z,55.55
2019-04-19T00:21:18.306Z,55.77
2019-04-19T00:22:21.030Z,55.77
2019-04-19T00:23:10.151Z,55.68
2019-04-19T00:24:01.643Z,55.87
2019-04-19T00:25:00.755Z,56.03
2019-04-19T00:26:00.373Z,55.65
2019-04-19T00:27:02.050Z,55.93
2019-04-19T00:28:02.321Z,56.12
2019-04-19T00:29:04.164Z,56.22
2019-04-19T00:30:13.893Z,56.34
2019-04-19T00:31:17.138Z,56.53
2019-04-19T00:32:20.696Z,56.44
2019-04-19T00:33:59.133Z,56.41
2019-04-19T00:34:56.768Z,57.17
2019-04-19T00:36:59.521Z,56.88
2019-04-19T00:38:00.549Z,56.88
2019-04-19T00:40:11.959Z,56.60
2019-04-19T00:41:03.096Z,56.79
2019-04-19T00:43:01.603Z,56.44
2019-04-19T00:44:05.488Z,57.01
2019-04-19T00:46:01.147Z,56.51
2019-04-19T00:47:02.525Z,57.17
2019-04-19T00:48:52.446Z,57.17
2019-04-19T00:49:55.399Z,56.60
2019-04-19T00:51:43.121Z,55.77
2019-04-19T00:52:55.716Z,54.82
2019-04-19T00:54:23.030Z,54.85
2019-04-19T00:55:21.633Z,54.75
2019-04-19T00:57:19.241Z,54.56
2019-04-19T00:58:16.316Z,54.66
2019-04-19T01:00:20.175Z,55.20
2019-04-19T01:01:18.055Z,55.20
2019-04-19T01:03:06.309Z,55.77
2019-04-19T01:04:15.641Z,55.58
2019-04-19T01:06:07.778Z,56.53
2019-04-19T01:07:04.150Z,56.63
2019-04-19T01:09:11.906Z,56.70
2019-04-19T01:10:13.515Z,57.20
2019-04-19T01:12:05.625Z,56.44
2019-04-19T01:13:05.732Z,56.72
2019-04-19T01:15:05.753Z,56.53
2019-04-19T01:16:01.314Z,56.44
2019-04-19T01:18:00.466Z,57.29
2019-04-19T01:18:54.004Z,57.39
2019-04-19T01:19:50.935Z,57.74
2019-04-19T01:20:45.986Z,57.84
2019-04-19T01:21:45.213Z,58.12
2019-04-19T01:22:49.009Z,58.31
2019-04-19T01:23:48.180Z,58.59
2019-04-19T01:24:47.962Z,59.27
2019-04-19T01:25:52.446Z,59.64
2019-04-19T01:26:48.675Z,59.17
2019-04-19T01:27:45.071Z,59.64
2019-04-19T01:28:55.705Z,59.64
2019-04-19T01:29:48.708Z,59.61
2019-04-19T01:30:46.541Z,59.83
2019-04-19T01:31:49.550Z,59.83
2019-04-19T01:32:50.337Z,59.55
2019-04-19T01:33:46.419Z,60.12
2019-04-19T01:34:46.668Z,60.38
2019-04-19T01:35:49.664Z,59.90
2019-04-19T01:36:47.984Z,59.80
2019-04-19T01:37:49.423Z,60.57
2019-04-19T01:38:51.343Z,60.66
2019-04-19T01:40:00.691Z,60.18
2019-04-19T01:41:03.189Z,60.57
2019-04-19T01:41:55.119Z,60.75
2019-04-19T01:43:01.914Z,60.75
2019-04-19T01:44:02.244Z,60.75
2019-04-19T01:45:02.859Z,60.47
2019-04-19T01:45:58.295Z,60.66
2019-04-19T01:47:03.122Z,60.94
2019-04-19T01:47:58.743Z,61.32
2019-04-19T01:48:56.819Z,61.61
2019-04-19T01:49:59.661Z,61.71
2019-04-19T01:51:04.630Z,61.32
2019-04-19T01:52:04.244Z,61.52
2019-04-19T01:53:03.606Z,61.61
2019-04-19T01:54:03.110Z,61.52
2019-04-19T01:54:54.371Z,61.42
2019-04-19T01:55:46.103Z,61.90
2019-04-19T01:56:48.295Z,61.61
2019-04-19T01:57:45.123Z,61.52
2019-04-19T01:58:51.793Z,60.75
2019-04-19T01:59:49.159Z,60.38
2019-04-19T02:00:49.460Z,60.85
2019-04-19T02:01:44.254Z,61.23
2019-04-19T02:02:50.187Z,61.42
2019-04-19T02:03:47.948Z,60.75
2019-04-19T02:04:45.463Z,60.88
2019-04-19T02:05:52.184Z,60.69
2019-04-19T02:06:46.696Z,59.83
2019-04-19T02:07:44.634Z,60.02
2019-04-19T02:08:49.404Z,59.83
2019-04-19T02:10:00.288Z,60.69
2019-04-19T02:10:52.900Z,60.02
2019-04-19T02:11:53.557Z,60.12
2019-04-19T02:12:51.305Z,59.64
2019-04-19T02:13:53.155Z,60.02
2019-04-19T02:14:53.868Z,59.83
2019-04-19T02:15:48.678Z,60.21
2019-04-19T02:16:49.603Z,59.83
2019-04-19T02:17:48.335Z,60.21
2019-04-19T02:18:45.004Z,59.74
2019-04-19T02:19:52.514Z,60.21
2019-04-19T02:20:47.534Z,60.12
2019-04-19T02:21:45.967Z,60.69
2019-04-19T02:22:44.218Z,60.78
2019-04-19T02:23:49.681Z,60.85
2019-04-19T02:24:47.772Z,60.66
2019-04-19T02:25:43.693Z,61.13
2019-04-19T02:26:50.042Z,61.71
2019-04-19T02:27:46.938Z,61.61
2019-04-19T02:28:44.687Z,62.27
2019-04-19T02:29:49.870Z,62.08
2019-04-19T02:30:58.271Z,62.85
2019-04-19T02:32:26.689Z,62.94
2019-04-19T02:33:09.517Z,62.65
2019-04-19T02:34:14.144Z,62.37
2019-04-19T02:35:11.457Z,62.56
2019-04-19T02:36:17.882Z,62.75
2019-04-19T02:39:13.717Z,62.08
2019-04-19T02:43:06.495Z,61.99
2019-04-19T02:44:27.155Z,61.55
2019-04-19T02:46:23.472Z,60.88
2019-04-19T02:48:10.992Z,61.23
2019-04-19T02:49:20.075Z,61.61
2019-04-19T02:50:35.890Z,61.32
2019-04-19T02:53:10.634Z,61.61
2019-04-19T02:54:11.791Z,62.18
2019-04-19T02:55:09.396Z,62.18
2019-04-19T02:56:12.921Z,61.61
2019-04-19T02:57:15.975Z,62.37
2019-04-19T02:58:07.591Z,62.18
2019-04-19T02:59:21.276Z,62.27
2019-04-19T03:02:14.040Z,62.27
2019-04-19T03:03:07.809Z,61.99
2019-04-19T03:04:24.465Z,61.99
2019-04-19T03:05:23.022Z,62.18
2019-04-19T03:06:02.445Z,61.26
2019-04-19T03:06:50.576Z,59.27
2019-04-19T03:07:45.536Z,58.53
2019-04-19T03:08:42.632Z,57.58
2019-04-19T03:09:44.061Z,57.39
2019-04-19T03:10:57.022Z,57.39
2019-04-19T03:11:56.556Z,57.29
2019-04-19T03:12:58.560Z,57.29
2019-04-19T03:13:58.076Z,57.48
2019-04-19T03:15:00.626Z,57.10
2019-04-19T03:15:58.262Z,58.06
2019-04-19T03:17:04.971Z,58.15
2019-04-19T03:18:08.812Z,57.96
2019-04-19T03:18:59.646Z,57.84
2019-04-19T03:19:54.906Z,57.74
2019-04-19T03:20:54.079Z,58.12
2019-04-19T03:21:56.306Z,58.69
2019-04-19T03:23:01.343Z,58.31
2019-04-19T03:24:00.232Z,59.36
2019-04-19T03:25:03.568Z,59.17
2019-04-19T03:25:54.417Z,58.31
2019-04-19T03:26:56.215Z,58.03
2019-04-19T03:27:55.329Z,58.59
2019-04-19T03:28:47.692Z,58.59
2019-04-19T03:29:46.704Z,58.22
2019-04-19T03:31:08.423Z,58.12
2019-04-19T03:32:24.033Z,57.45
2019-04-19T03:33:15.157Z,58.06
2019-04-19T03:34:15.282Z,57.96
2019-04-19T03:35:59.463Z,57.01
2019-04-19T03:36:55.145Z,56.82
2019-04-19T03:38:02.666Z,57.10
2019-04-19T03:39:10.017Z,57.29
2019-04-19T03:40:06.276Z,57.36
2019-04-19T03:41:06.617Z,58.22
2019-04-19T03:42:54.810Z,58.22
2019-04-19T03:43:56.652Z,58.79
2019-04-19T03:45:01.685Z,59.17
2019-04-19T03:46:05.143Z,59.45
2019-04-19T03:47:04.382Z,59.07
2019-04-19T03:48:07.683Z,58.15
2019-04-19T03:48:56.162Z,56.18
2019-04-19T03:49:57.302Z,54.85
2019-04-19T03:51:04.983Z,53.25
2019-04-19T03:52:20.121Z,53.25
2019-04-19T03:53:03.261Z,53.35
2019-04-19T03:54:00.497Z,53.89
2019-04-19T03:54:56.065Z,54.27
2019-04-19T03:56:06.217Z,54.56
2019-04-19T03:56:56.212Z,54.85
2019-04-19T03:57:51.488Z,55.10
2019-04-19T03:58:41.785Z,55.20
2019-04-19T03:59:41.541Z,55.58
2019-04-19T04:00:41.381Z,56.82
2019-04-19T04:01:46.402Z,56.92
2019-04-19T04:02:45.871Z,57.39
2019-04-19T04:03:44.903Z,57.74
2019-04-19T04:04:48.416Z,57.87
2019-04-19T04:05:45.992Z,57.67
2019-04-19T04:06:44.217Z,57.20
2019-04-19T04:07:41.308Z,57.20
2019-04-19T04:08:48.545Z,56.22
2019-04-19T04:09:47.336Z,57.48
2019-04-19T04:10:45.243Z,57.84
2019-04-19T04:11:53.212Z,57.93
2019-04-19T04:12:49.583Z,58.50
2019-04-19T04:13:56.651Z,57.93
2019-04-19T04:14:57.885Z,58.22
2019-04-19T04:15:54.034Z,58.22
2019-04-19T04:16:45.906Z,58.12
2019-04-19T04:17:41.538Z,58.88
2019-04-19T04:18:40.952Z,59.64
2019-04-19T04:19:41.691Z,59.45
2019-04-19T04:20:43.702Z,59.17
2019-04-19T04:21:46.337Z,59.27
2019-04-19T04:22:44.083Z,59.45
2019-04-19T04:23:44.308Z,59.07
2019-04-19T04:24:53.446Z,60.02
2019-04-19T04:25:48.408Z,59.74
2019-04-19T04:26:52.759Z,59.74
2019-04-19T04:27:55.646Z,58.98
2019-04-19T04:28:53.015Z,59.36
2019-04-19T04:29:51.849Z,58.50
2019-04-19T04:30:51.683Z,58.22
2019-04-19T04:31:53.366Z,57.10
2019-04-19T04:32:55.932Z,56.63
2019-04-19T04:33:52.740Z,56.63
2019-04-19T04:34:51.317Z,55.70
2019-04-19T04:35:53.322Z,56.09
2019-04-19T04:36:54.610Z,55.80
2019-04-19T04:37:52.505Z,55.32
2019-04-19T04:38:44.299Z,54.75
2019-04-19T04:39:40.656Z,54.88
2019-04-19T04:40:40.443Z,54.66
2019-04-19T04:41:42.890Z,54.47
2019-04-19T04:42:57.051Z,54.94
2019-04-19T04:43:55.578Z,54.66
2019-04-19T04:45:09.026Z,54.75
2019-04-19T04:46:11.241Z,54.78
2019-04-19T04:47:04.685Z,55.07
2019-04-19T04:47:56.153Z,54.97
2019-04-19T04:48:58.277Z,54.88
2019-04-19T04:50:02.228Z,54.85
2019-04-19T04:51:00.011Z,54.56
2019-04-19T04:51:54.753Z,55.22
2019-04-19T04:52:42.917Z,55.70
2019-04-19T04:53:40.828Z,55.32
2019-04-19T04:54:41.028Z,55.51
2019-04-19T04:55:44.985Z,55.70
2019-04-19T04:56:50.812Z,55.13
2019-04-19T04:57:48.901Z,54.78
2019-04-19T04:58:43.783Z,54.97
2019-04-19T04:59:45.345Z,54.59
2019-04-19T05:00:48.453Z,53.92
2019-04-19T05:01:51.588Z,53.73
2019-04-19T05:02:58.511Z,53.64
2019-04-19T05:03:58.086Z,53.64
2019-04-19T05:04:54.722Z,54.02
2019-04-19T05:06:05.294Z,53.64
2019-04-19T05:06:57.849Z,53.73
2019-04-19T05:08:03.223Z,53.64
2019-04-19T05:08:56.988Z,53.56
2019-04-19T05:10:04.650Z,53.00
2019-04-19T05:10:56.827Z,52.04
2019-04-19T05:12:09.139Z,52.71
2019-04-19T05:13:16.410Z,52.23
2019-04-19T05:14:00.400Z,52.45
2019-04-19T05:14:53.495Z,52.07
2019-04-19T05:16:19.398Z,51.59
2019-04-19T05:17:58.300Z,51.71
2019-04-19T05:18:50.949Z,51.62
2019-04-19T05:20:44.394Z,50.12
2019-04-19T05:21:40.132Z,49.07
2019-04-19T05:23:33.153Z,48.33
2019-04-19T05:24:47.337Z,47.18
2019-04-19T05:26:48.149Z,46.15
2019-04-19T05:27:40.240Z,45.31
2019-04-19T05:28:33.757Z,44.86
2019-04-19T05:29:22.945Z,44.00
2019-04-19T05:30:15.382Z,42.76
2019-04-19T05:31:24.786Z,43.43
2019-04-19T05:32:23.390Z,42.66
2019-04-19T05:33:26.763Z,42.08
2019-04-19T05:34:36.409Z,42.56
2019-04-19T05:35:27.477Z,42.94
2019-04-19T05:36:34.967Z,43.33
2019-04-19T05:37:35.133Z,42.87
2019-04-19T05:38:37.646Z,41.82
2019-04-19T05:39:37.204Z,41.27
2019-04-19T05:40:29.031Z,40.52
2019-04-19T05:41:31.083Z,40.14
2019-04-19T05:42:37.188Z,39.85
2019-04-19T05:43:52.925Z,39.20
2019-04-19T05:45:01.735Z,39.39
2019-04-19T05:45:36.734Z,38.45
2019-04-19T05:46:37.754Z,38.26
2019-04-19T05:47:31.208Z,37.70
2019-04-19T05:48:28.472Z,37.51
2019-04-19T05:49:26.302Z,37.01
2019-04-19T05:50:35.626Z,38.07
2019-04-19T05:51:41.413Z,37.80
2019-04-19T05:52:34.603Z,37.41
2019-04-19T05:53:25.733Z,36.84
2019-04-19T05:54:16.706Z,36.46
2019-04-19T05:55:16.850Z,36.91
2019-04-19T05:56:15.673Z,37.78
2019-04-19T05:57:37.118Z,37.49
2019-04-19T05:58:24.344Z,37.41
2019-04-19T05:59:23.201Z,36.93
2019-04-19T06:00:28.483Z,36.66
2019-04-19T06:01:39.488Z,36.57
2019-04-19T06:02:24.356Z,36.20
2019-04-19T06:03:23.193Z,35.89
2019-04-19T06:04:34.695Z,36.09
2019-04-19T06:05:37.641Z,35.99
2019-04-19T06:06:37.483Z,35.99
2019-04-19T06:07:30.282Z,35.59
2019-04-19T06:08:20.950Z,36.28
2019-04-19T06:09:15.470Z,36.38
2019-04-19T06:10:15.748Z,36.28
2019-04-19T06:11:21.286Z,35.71
2019-04-19T06:12:19.701Z,36.28
2019-04-19T06:13:17.080Z,35.99
2019-04-19T06:14:41.092Z,36.09
2019-04-19T06:15:37.135Z,35.91
2019-04-19T06:16:30.406Z,36.03
2019-04-19T06:17:30.849Z,34.68
2019-04-19T06:18:28.397Z,34.88
2019-04-19T06:19:31.389Z,34.49
2019-04-19T06:20:30.259Z,34.20
2019-04-19T06:21:34.035Z,34.88
2019-04-19T06:22:35.822Z,34.68
2019-04-19T06:23:40.026Z,34.76
2019-04-19T06:24:33.977Z,34.95
2019-04-19T06:25:44.502Z,35.43
2019-04-19T06:26:54.351Z,35.34
2019-04-19T06:27:43.844Z,35.16
2019-04-19T06:28:37.932Z,35.05
2019-04-19T06:29:39.333Z,34.95
2019-04-19T06:30:30.348Z,35.64
2019-04-19T06:31:37.854Z,34.51
2019-04-19T06:32:33.943Z,34.51
2019-04-19T06:33:32.363Z,33.74
2019-04-19T06:34:34.872Z,34.43
2019-04-19T06:35:23.937Z,33.95
2019-04-19T06:36:14.595Z,34.22
2019-04-19T06:37:19.302Z,34.38
2019-04-19T06:38:13.965Z,34.88
2019-04-19T06:39:14.213Z,35.26
2019-04-19T06:40:21.165Z,35.08
2019-04-19T06:41:18.590Z,34.70
2019-04-19T06:42:15.684Z,35.18
2019-04-19T06:43:20.310Z,35.08
2019-04-19T06:44:33.726Z,34.80
2019-04-19T06:45:32.298Z,34.89
2019-04-19T06:46:30.363Z,34.03
2019-04-19T06:47:21.836Z,34.61
2019-04-19T06:48:18.545Z,35.00
2019-04-19T06:49:21.176Z,34.91
2019-04-19T06:50:15.193Z,35.10
2019-04-19T06:51:24.309Z,34.23
2019-04-19T06:52:20.933Z,34.72
2019-04-19T06:53:14.564Z,35.10
2019-04-19T06:54:15.521Z,35.20
2019-04-19T06:55:21.226Z,35.00
2019-04-19T06:56:20.892Z,33.97
2019-04-19T06:57:21.806Z,34.25
2019-04-19T06:58:19.379Z,34.16
2019-04-19T06:59:21.261Z,33.67
2019-04-19T07:00:26.109Z,34.14
2019-04-19T07:01:25.549Z,35.10
2019-04-19T07:02:13.797Z,35.87
2019-04-19T07:03:14.787Z,35.41
2019-04-19T07:04:14.789Z,34.33
2019-04-19T07:05:27.694Z,34.14
2019-04-19T07:06:28.441Z,34.23
2019-04-19T07:07:29.999Z,34.62
2019-04-19T07:09:37.567Z,34.23
2019-04-19T07:11:33.167Z,35.36
2019-04-19T07:12:34.344Z,35.36
2019-04-19T07:13:27.469Z,34.99
2019-04-19T07:14:19.701Z,34.81
2019-04-19T07:16:35.985Z,33.54
2019-04-19T07:17:30.763Z,34.30
2019-04-19T07:18:28.976Z,34.57
2019-04-19T07:19:34.676Z,35.14
2019-04-19T07:20:26.580Z,35.89
2019-04-19T07:21:33.545Z,36.09
2019-04-19T07:22:33.757Z,36.30
2019-04-19T07:23:34.246Z,36.41
2019-04-19T07:24:39.247Z,36.22
2019-04-19T07:25:39.517Z,35.85
2019-04-19T07:26:33.843Z,34.88
2019-04-19T07:27:28.487Z,34.76
2019-04-19T07:28:20.156Z,34.68
2019-04-19T07:29:14.576Z,34.30
2019-04-19T07:30:13.865Z,34.43
2019-04-19T07:31:14.808Z,33.64
2019-04-19T07:32:17.792Z,34.30
2019-04-19T07:33:23.432Z,34.12
2019-04-19T07:34:33.176Z,34.39
2019-04-19T07:35:35.067Z,34.12
2019-04-19T07:36:39.023Z,34.11
2019-04-19T07:38:37.253Z,34.67
2019-04-19T07:39:27.940Z,34.57
2019-04-19T07:41:26.763Z,35.13
2019-04-19T07:42:34.780Z,35.91
2019-04-19T07:43:28.454Z,35.53
2019-04-19T07:44:21.323Z,35.14
2019-04-19T07:45:18.774Z,34.38
2019-04-19T07:46:31.105Z,34.76
2019-04-19T07:47:28.066Z,35.05
2019-04-19T07:48:18.403Z,34.57
2019-04-19T07:49:15.328Z,34.38
2019-04-19T07:50:21.674Z,34.67
2019-04-19T07:51:18.820Z,35.06
2019-04-19T07:52:20.928Z,34.78
2019-04-19T07:53:19.955Z,34.39
2019-04-19T07:54:25.256Z,34.20
2019-04-19T07:56:27.281Z,33.54
2019-04-19T07:59:31.920Z,33.93
2019-04-19T08:01:39.426Z,33.53
2019-04-19T08:02:36.038Z,33.90
2019-04-19T08:04:40.465Z,33.64
2019-04-19T08:06:37.631Z,32.98
2019-04-19T08:08:39.765Z,32.31
2019-04-19T08:10:33.413Z,32.39
2019-04-19T08:16:44.855Z,32.25
2019-04-19T08:28:09.886Z,31.29
2019-04-19T08:29:06.334Z,31.98
2019-04-19T08:31:01.843Z,31.48
2019-04-19T08:31:55.423Z,31.59
2019-04-19T08:33:56.408Z,31.65
2019-04-19T08:35:02.866Z,32.33
2019-04-19T08:36:59.414Z,31.37
2019-04-19T08:38:00.570Z,31.56
2019-04-19T08:40:16.299Z,32.54
2019-04-19T08:41:04.832Z,31.40
2019-04-19T08:42:56.738Z,31.14
2019-04-19T08:43:55.275Z,30.18
2019-04-19T08:45:34.480Z,31.41
2019-04-19T08:46:34.699Z,30.74
2019-04-19T08:48:39.363Z,30.08
2019-04-19T08:49:37.244Z,30.00
2019-04-19T08:50:30.893Z,29.32
2019-04-19T08:51:33.741Z,29.31
2019-04-19T08:52:33.647Z,29.77
2019-04-19T08:53:42.781Z,29.77
2019-04-19T08:54:53.550Z,29.49
2019-04-19T08:55:49.189Z,29.60
2019-04-19T08:56:41.900Z,29.32
2019-04-19T08:57:32.473Z,29.11
2019-04-19T08:58:44.825Z,29.50
2019-04-19T09:00:08.229Z,29.79
2019-04-19T09:01:00.402Z,29.31
2019-04-19T09:01:50.708Z,29.20
2019-04-19T09:02:45.339Z,30.26
2019-04-19T09:03:54.046Z,30.55
2019-04-19T09:04:50.955Z,29.69
2019-04-19T09:05:53.785Z,29.52
2019-04-19T09:07:51.232Z,29.13
2019-04-19T09:08:45.927Z,28.55
2019-04-19T09:10:01.652Z,29.21
2019-04-19T09:10:53.202Z,29.29
2019-04-19T09:11:49.831Z,29.77
2019-04-19T09:12:55.651Z,29.77
2019-04-19T09:13:49.334Z,29.60
2019-04-19T09:14:51.930Z,29.02
2019-04-19T09:15:53.602Z,28.84
2019-04-19T09:16:59.441Z,28.36
2019-04-19T09:18:14.388Z,27.87
2019-04-19T09:18:55.693Z,28.55
2019-04-19T09:20:52.123Z,28.66
2019-04-19T09:21:42.925Z,28.74
2019-04-19T09:22:49.064Z,29.13
2019-04-19T09:24:37.468Z,28.55
2019-04-19T09:25:36.125Z,28.52
2019-04-19T09:26:42.510Z,29.28
2019-04-19T09:27:49.854Z,29.47
2019-04-19T09:29:45.068Z,29.13
2019-04-19T09:30:41.124Z,27.78
2019-04-19T09:31:38.492Z,28.84
2019-04-19T09:32:28.633Z,28.36
2019-04-19T09:33:29.529Z,28.64
2019-04-19T09:34:26.200Z,27.97
2019-04-19T09:35:24.183Z,27.48
2019-04-19T09:36:31.665Z,28.34
2019-04-19T09:37:40.045Z,28.25
2019-04-19T09:38:39.711Z,27.86
2019-04-19T09:39:39.770Z,27.96
2019-04-19T09:40:41.639Z,26.80
2019-04-19T09:42:38.863Z,26.33
2019-04-19T09:43:31.055Z,26.82
2019-04-19T09:45:12.614Z,26.61
2019-04-19T09:46:12.580Z,27.97
2019-04-19T09:48:13.662Z,27.48
2019-04-19T09:49:20.009Z,27.57
2019-04-19T09:51:16.955Z,27.40
2019-04-19T09:52:20.634Z,26.91
2019-04-19T09:53:25.868Z,26.62
2019-04-19T09:54:22.648Z,26.62
2019-04-19T09:55:23.553Z,26.43
2019-04-19T09:56:17.340Z,26.72
2019-04-19T09:57:20.892Z,26.72
2019-04-19T09:58:16.919Z,26.81
2019-04-19T09:59:10.287Z,27.29
2019-04-19T10:00:07.943Z,27.12
2019-04-19T10:00:59.914Z,26.93
2019-04-19T10:02:02.041Z,26.72
2019-04-19T10:03:04.857Z,27.29
2019-04-19T10:04:01.393Z,27.40
2019-04-19T10:04:58.864Z,26.64
2019-04-19T10:05:59.454Z,26.64
2019-04-19T10:06:58.717Z,26.73
2019-04-19T10:07:59.675Z,27.34
2019-04-19T10:08:58.710Z,26.35
2019-04-19T10:10:03.120Z,25.38
2019-04-19T10:10:58.865Z,26.92
2019-04-19T10:11:59.540Z,26.12
2019-04-19T10:12:58.666Z,27.48
2019-04-19T10:13:58.660Z,27.02
2019-04-19T10:14:59.760Z,26.44
2019-04-19T10:15:58.643Z,26.15
2019-04-19T10:16:58.635Z,26.84
2019-04-19T10:17:58.702Z,26.76
2019-04-19T10:19:03.098Z,25.79
2019-04-19T10:19:58.605Z,25.78
2019-04-19T10:20:58.785Z,25.68
2019-04-19T10:21:58.601Z,25.28
2019-04-19T10:23:00.872Z,26.64
2019-04-19T10:24:00.774Z,26.55
2019-04-19T10:24:58.931Z,26.37
2019-04-19T10:26:04.191Z,26.46
2019-04-19T10:26:58.878Z,26.37
2019-04-19T10:27:58.552Z,25.60
2019-04-19T10:28:58.641Z,25.78
2019-04-19T10:29:59.814Z,25.50
2019-04-19T10:30:58.889Z,24.73
2019-04-19T10:31:58.523Z,25.32
2019-04-19T10:32:58.520Z,25.20
2019-04-19T10:34:01.329Z,25.68
2019-04-19T10:34:58.911Z,25.29
2019-04-19T10:35:58.515Z,25.29
2019-04-19T10:36:59.973Z,25.31
2019-04-19T10:37:59.695Z,25.20
2019-04-19T10:38:59.393Z,25.19
2019-04-19T10:39:59.523Z,25.57
2019-04-19T10:40:59.650Z,25.48
2019-04-19T10:41:58.600Z,26.55
2019-04-19T10:42:58.963Z,25.40
2019-04-19T10:44:04.236Z,25.31
2019-04-19T10:44:58.443Z,25.23
2019-04-19T10:45:58.426Z,25.32
2019-04-19T10:46:58.760Z,25.32
2019-04-19T10:47:58.410Z,25.24
2019-04-19T10:49:08.394Z,24.86
2019-04-19T10:50:14.478Z,23.90
2019-04-19T10:50:59.513Z,23.40
2019-04-19T10:51:58.521Z,22.89
2019-04-19T10:52:58.576Z,23.96
2019-04-19T10:53:58.373Z,24.82
2019-04-19T10:54:59.432Z,24.16
2019-04-19T10:55:58.361Z,24.26
2019-04-19T10:56:58.588Z,23.77
2019-04-19T10:57:58.920Z,23.57
2019-04-19T10:58:58.732Z,24.05
2019-04-19T10:59:58.632Z,24.73
2019-04-19T11:00:58.332Z,24.54
2019-04-19T11:01:58.314Z,25.21
2019-04-19T11:02:58.980Z,24.84
2019-04-19T11:03:59.120Z,24.17
2019-04-19T11:04:58.743Z,24.08
2019-04-19T11:05:58.726Z,24.01
2019-04-19T11:06:58.292Z,24.01
2019-04-19T11:07:59.281Z,23.02
2019-04-19T11:08:58.424Z,23.02
2019-04-19T11:09:58.272Z,23.60
2019-04-19T11:10:58.285Z,24.87
2019-04-19T11:11:59.566Z,23.63
2019-04-19T11:12:58.695Z,23.33
2019-04-19T11:13:58.290Z,23.61
2019-04-19T11:15:10.796Z,23.90
2019-04-19T11:16:53.507Z,23.79
2019-04-19T11:18:01.442Z,23.40
2019-04-19T11:20:01.040Z,22.74
2019-04-19T11:20:51.787Z,21.86
2019-04-19T11:22:40.177Z,22.33
2019-04-19T11:23:40.143Z,22.13
2019-04-19T11:25:33.398Z,21.85
2019-04-19T11:26:33.025Z,21.08
2019-04-19T11:28:27.013Z,21.09
2019-04-19T11:29:26.045Z,20.03
2019-04-19T11:31:19.094Z,21.19
2019-04-19T11:32:19.884Z,21.38
2019-04-19T11:34:13.141Z,21.48
2019-04-19T11:35:11.810Z,21.88
2019-04-19T11:37:05.644Z,21.01
2019-04-19T11:38:06.897Z,21.88
2019-04-19T11:39:05.597Z,22.27
2019-04-19T11:40:06.877Z,21.79
2019-04-19T11:41:05.606Z,20.72
2019-04-19T11:42:05.580Z,21.30
2019-04-19T11:43:05.576Z,21.48
2019-04-19T11:44:13.927Z,21.38
2019-04-19T11:45:05.815Z,21.57
2019-04-19T11:46:06.302Z,21.86
2019-04-19T11:47:06.828Z,21.28
2019-04-19T11:48:05.538Z,21.97
2019-04-19T11:49:05.936Z,21.57
2019-04-19T11:50:06.041Z,21.30
2019-04-19T11:51:05.748Z,21.38
2019-04-19T11:52:08.107Z,21.39
2019-04-19T11:53:06.182Z,21.19
2019-04-19T11:54:06.189Z,21.57
2019-04-19T11:55:06.171Z,20.79
2019-04-19T11:56:06.666Z,21.28
2019-04-19T11:57:07.525Z,21.20
2019-04-19T11:58:06.387Z,21.41
2019-04-19T11:59:06.642Z,20.92
2019-04-19T12:00:06.142Z,21.11
2019-04-19T12:01:05.708Z,21.02
2019-04-19T12:02:06.100Z,20.46
2019-04-19T12:03:06.446Z,19.78
2019-04-19T12:04:05.967Z,20.14
2019-04-19T12:05:12.864Z,20.89
2019-04-19T12:06:06.586Z,21.66
2019-04-19T12:07:06.079Z,22.34
2019-04-19T12:08:06.525Z,22.45
2019-04-19T12:09:06.673Z,21.11
2019-04-19T12:10:06.092Z,21.66
2019-04-19T12:11:06.482Z,22.34
2019-04-19T12:12:05.536Z,21.96
2019-04-19T12:13:06.660Z,21.48
2019-04-19T12:14:05.962Z,21.20
2019-04-19T12:15:06.177Z,21.00
2019-04-19T12:16:06.230Z,20.24
2019-04-19T12:17:05.357Z,20.64
2019-04-19T12:18:06.272Z,19.76
2019-04-19T12:19:13.963Z,19.47
2019-04-19T12:21:07.346Z,19.95
2019-04-19T12:22:07.651Z,20.14
2019-04-19T12:23:54.983Z,20.34
2019-04-19T12:24:55.336Z,20.83
2019-04-19T12:25:55.511Z,21.13
2019-04-19T12:26:55.580Z,21.53
2019-04-19T12:27:54.354Z,20.28
2019-04-19T12:28:55.543Z,20.18
2019-04-19T12:29:56.542Z,20.28
2019-04-19T12:30:57.057Z,20.14
2019-04-19T12:31:54.582Z,20.06
2019-04-19T12:32:55.317Z,20.06
2019-04-19T12:33:55.435Z,19.58
2019-04-19T12:34:55.003Z,19.85
2019-04-19T12:35:55.009Z,20.13
2019-04-19T12:36:55.116Z,21.00
2019-04-19T12:37:57.454Z,21.40
2019-04-19T12:38:54.280Z,22.49
2019-04-19T12:39:54.818Z,21.04
2019-04-19T12:40:54.254Z,20.96
2019-04-19T12:41:55.428Z,20.09
2019-04-19T12:42:54.249Z,19.80
2019-04-19T12:43:54.241Z,19.70
2019-04-19T12:44:54.363Z,20.47
2019-04-19T12:45:55.500Z,20.26
2019-04-19T12:46:55.131Z,20.56
2019-04-19T12:47:55.255Z,20.95
2019-04-19T12:48:54.262Z,21.44
2019-04-19T12:50:01.117Z,20.17
2019-04-19T12:50:54.198Z,20.65
2019-04-19T12:51:54.443Z,20.17
2019-04-19T12:52:54.178Z,20.18
2019-04-19T12:53:54.221Z,20.75
2019-04-19T12:54:54.299Z,20.65
2019-04-19T12:55:54.151Z,20.67
2019-04-19T12:56:54.161Z,20.37
2019-04-19T12:57:54.200Z,19.79
2019-04-19T12:58:54.156Z,19.49
2019-04-19T12:59:54.151Z,19.78
2019-04-19T13:00:54.255Z,19.78
2019-04-19T13:01:54.133Z,19.67
2019-04-19T13:02:54.112Z,19.67
2019-04-19T13:03:54.743Z,20.14
2019-04-19T13:04:54.103Z,21.02
2019-04-19T13:05:55.314Z,20.74
2019-04-19T13:06:54.621Z,21.02
2019-04-19T13:07:54.124Z,21.40
2019-04-19T13:08:54.987Z,21.61
2019-04-19T13:09:55.086Z,21.13
2019-04-19T13:10:54.425Z,20.85
2019-04-19T13:11:54.851Z,20.06
2019-04-19T13:13:09.953Z,20.65
2019-04-19T13:14:49.347Z,21.42
2019-04-19T13:15:48.431Z,20.37
2019-04-19T13:17:42.287Z,20.83
2019-04-19T13:18:42.529Z,21.20
2019-04-19T13:20:36.931Z,20.82
2019-04-19T13:21:34.722Z,20.53
2019-04-19T13:22:34.715Z,20.72
2019-04-19T13:23:34.707Z,21.00
2019-04-19T13:24:34.698Z,21.00
2019-04-19T13:25:35.359Z,21.12
2019-04-19T13:26:35.606Z,21.13
2019-04-19T13:27:43.461Z,19.68
2019-04-19T13:28:35.410Z,18.82
2019-04-19T13:29:35.607Z,19.50
2019-04-19T13:30:43.253Z,19.31
2019-04-19T13:31:34.783Z,19.01
2019-04-19T13:32:35.742Z,18.81
2019-04-19T13:33:34.623Z,18.23
2019-04-19T13:34:34.634Z,18.80
2019-04-19T13:35:35.125Z,19.66
2019-04-19T13:36:37.298Z,19.35
2019-04-19T13:37:34.592Z,19.54
2019-04-19T13:38:34.937Z,19.76
2019-04-19T13:39:34.593Z,19.38
2019-04-19T13:40:34.576Z,19.57
2019-04-19T13:41:34.924Z,19.58
2019-04-19T13:42:35.093Z,19.20
2019-04-19T13:43:35.167Z,19.60
2019-04-19T13:44:34.784Z,19.62
2019-04-19T13:45:36.287Z,19.23
2019-04-19T13:46:34.847Z,18.35
2019-04-19T13:47:34.512Z,17.97
2019-04-19T13:48:34.694Z,18.05
2019-04-19T13:49:34.738Z,19.20
2019-04-19T13:50:38.716Z,19.87
2019-04-19T13:51:34.596Z,19.19
2019-04-19T13:52:34.719Z,18.51
2019-04-19T13:53:34.468Z,18.21
2019-04-19T13:54:34.570Z,18.51
2019-04-19T13:55:34.765Z,17.92
2019-04-19T13:56:34.449Z,18.12
2019-04-19T13:57:35.571Z,17.62
2019-04-19T13:58:35.752Z,17.14
2019-04-19T13:59:42.429Z,17.42
2019-04-19T14:00:34.412Z,17.60
2019-04-19T14:01:34.554Z,17.52
2019-04-19T14:02:35.397Z,17.62
2019-04-19T14:03:35.268Z,17.63
2019-04-19T14:04:35.480Z,17.54
2019-04-19T14:05:34.369Z,17.44
2019-04-19T14:06:34.363Z,16.86
2019-04-19T14:07:34.891Z,17.52
2019-04-19T14:08:35.674Z,17.52
2019-04-19T14:09:34.330Z,17.60
2019-04-19T14:10:34.974Z,17.52
2019-04-19T14:11:35.246Z,17.61
2019-04-19T14:12:34.306Z,17.82
2019-04-19T14:13:35.080Z,17.24
2019-04-19T14:14:34.949Z,17.05
2019-04-19T14:15:35.007Z,16.74
2019-04-19T14:16:35.522Z,16.54
2019-04-19T14:17:34.265Z,17.24